sensor_id;sensor_type;location;lat;lon;timestamp;P1;durP1;ratioP1;P2;durP2;ratioP2
68192;SDS011;55012;47.562;18.414;2023-05-21T00:00:57;14.23;;;9.23;;
68192;SDS011;55012;47.562;18.414;2023-05-21T00:03:23;18.73;;;10.50;;
68192;SDS011;55012;47.562;18.414;2023-05-21T00:05:51;18.20;;;11.13;;
68192;SDS011;55012;47.562;18.414;2023-05-21T00:08:16;17.92;;;10.60;;
68192;SDS011;55012;47.562;18.414;2023-05-21T00:10:42;16.67;;;9.85;;
68192;SDS011;55012;47.562;18.414;2023-05-21T00:13:07;16.00;;;9.05;;
68192;SDS011;55012;47.562;18.414;2023-05-21T00:15:34;15.18;;;8.55;;
68192;SDS011;55012;47.562;18.414;2023-05-21T00:18:00;14.38;;;8.73;;
68192;SDS011;55012;47.562;18.414;2023-05-21T00:20:26;15.88;;;8.95;;
68192;SDS011;55012;47.562;18.414;2023-05-21T00:22:53;14.68;;;8.93;;
68192;SDS011;55012;47.562;18.414;2023-05-21T00:25:19;13.20;;;8.57;;
68192;SDS011;55012;47.562;18.414;2023-05-21T00:27:44;14.10;;;9.05;;
68192;SDS011;55012;47.562;18.414;2023-05-21T00:30:10;16.58;;;10.15;;
68192;SDS011;55012;47.562;18.414;2023-05-21T00:32:35;21.15;;;10.70;;
68192;SDS011;55012;47.562;18.414;2023-05-21T00:35:01;17.60;;;10.32;;
68192;SDS011;55012;47.562;18.414;2023-05-21T00:37:27;18.33;;;10.50;;
68192;SDS011;55012;47.562;18.414;2023-05-21T00:39:57;19.10;;;10.02;;
68192;SDS011;55012;47.562;18.414;2023-05-21T00:42:22;18.50;;;10.30;;
68192;SDS011;55012;47.562;18.414;2023-05-21T00:44:51;22.65;;;11.18;;
68192;SDS011;55012;47.562;18.414;2023-05-21T00:47:18;21.85;;;11.93;;
68192;SDS011;55012;47.562;18.414;2023-05-21T00:49:45;20.90;;;12.55;;
68192;SDS011;55012;47.562;18.414;2023-05-21T00:52:13;21.63;;;11.90;;
68192;SDS011;55012;47.562;18.414;2023-05-21T00:54:39;17.80;;;10.98;;
68192;SDS011;55012;47.562;18.414;2023-05-21T00:57:05;19.00;;;10.10;;
68192;SDS011;55012;47.562;18.414;2023-05-21T00:59:31;19.13;;;9.82;;
68192;SDS011;55012;47.562;18.414;2023-05-21T01:01:57;17.20;;;9.95;;
68192;SDS011;55012;47.562;18.414;2023-05-21T01:04:28;16.27;;;9.95;;
68192;SDS011;55012;47.562;18.414;2023-05-21T01:06:55;22.70;;;11.32;;
68192;SDS011;55012;47.562;18.414;2023-05-21T01:09:22;17.42;;;10.35;;
68192;SDS011;55012;47.562;18.414;2023-05-21T01:11:51;16.67;;;9.63;;
68192;SDS011;55012;47.562;18.414;2023-05-21T01:14:17;14.65;;;8.80;;
68192;SDS011;55012;47.562;18.414;2023-05-21T01:16:46;14.55;;;9.05;;
68192;SDS011;55012;47.562;18.414;2023-05-21T01:19:17;14.88;;;9.35;;
68192;SDS011;55012;47.562;18.414;2023-05-21T01:21:45;14.93;;;9.40;;
68192;SDS011;55012;47.562;18.414;2023-05-21T01:24:14;18.20;;;9.30;;
68192;SDS011;55012;47.562;18.414;2023-05-21T01:26:40;15.32;;;9.05;;
68192;SDS011;55012;47.562;18.414;2023-05-21T01:29:09;13.77;;;9.20;;
68192;SDS011;55012;47.562;18.414;2023-05-21T01:34:16;14.07;;;8.95;;
68192;SDS011;55012;47.562;18.414;2023-05-21T01:36:56;14.98;;;8.82;;
68192;SDS011;55012;47.562;18.414;2023-05-21T01:39:57;13.40;;;8.68;;
68192;SDS011;55012;47.562;18.414;2023-05-21T01:44:54;14.40;;;7.93;;
68192;SDS011;55012;47.562;18.414;2023-05-21T01:47:22;14.70;;;8.70;;
68192;SDS011;55012;47.562;18.414;2023-05-21T01:49:49;13.18;;;8.68;;
68192;SDS011;55012;47.562;18.414;2023-05-21T01:52:15;14.68;;;9.00;;
68192;SDS011;55012;47.562;18.414;2023-05-21T01:54:41;15.23;;;8.55;;
68192;SDS011;55012;47.562;18.414;2023-05-21T01:57:06;15.68;;;8.35;;
68192;SDS011;55012;47.562;18.414;2023-05-21T01:59:32;16.50;;;9.77;;
68192;SDS011;55012;47.562;18.414;2023-05-21T02:01:58;13.80;;;8.45;;
68192;SDS011;55012;47.562;18.414;2023-05-21T02:04:23;12.18;;;8.52;;
68192;SDS011;55012;47.562;18.414;2023-05-21T02:06:49;11.73;;;8.20;;
68192;SDS011;55012;47.562;18.414;2023-05-21T02:09:14;14.18;;;8.23;;
68192;SDS011;55012;47.562;18.414;2023-05-21T02:11:40;16.80;;;9.63;;
68192;SDS011;55012;47.562;18.414;2023-05-21T02:14:05;14.27;;;9.57;;
68192;SDS011;55012;47.562;18.414;2023-05-21T02:16:34;16.42;;;9.40;;
68192;SDS011;55012;47.562;18.414;2023-05-21T02:18:59;23.60;;;11.55;;
68192;SDS011;55012;47.562;18.414;2023-05-21T02:21:25;15.52;;;9.73;;
68192;SDS011;55012;47.562;18.414;2023-05-21T02:23:51;19.25;;;9.07;;
68192;SDS011;55012;47.562;18.414;2023-05-21T02:26:16;16.17;;;8.73;;
68192;SDS011;55012;47.562;18.414;2023-05-21T02:28:42;17.10;;;9.40;;
68192;SDS011;55012;47.562;18.414;2023-05-21T02:31:08;15.52;;;9.05;;
68192;SDS011;55012;47.562;18.414;2023-05-21T02:33:33;15.80;;;8.90;;
68192;SDS011;55012;47.562;18.414;2023-05-21T02:35:59;16.67;;;8.98;;
68192;SDS011;55012;47.562;18.414;2023-05-21T02:38:24;14.35;;;8.95;;
68192;SDS011;55012;47.562;18.414;2023-05-21T02:40:50;15.52;;;9.40;;
68192;SDS011;55012;47.562;18.414;2023-05-21T02:43:15;16.10;;;9.20;;
68192;SDS011;55012;47.562;18.414;2023-05-21T02:45:41;16.98;;;9.98;;
68192;SDS011;55012;47.562;18.414;2023-05-21T02:48:07;14.93;;;9.52;;
68192;SDS011;55012;47.562;18.414;2023-05-21T02:50:32;15.50;;;9.70;;
68192;SDS011;55012;47.562;18.414;2023-05-21T02:52:58;17.23;;;9.93;;
68192;SDS011;55012;47.562;18.414;2023-05-21T02:55:26;17.75;;;10.43;;
68192;SDS011;55012;47.562;18.414;2023-05-21T02:57:51;19.27;;;10.82;;
68192;SDS011;55012;47.562;18.414;2023-05-21T03:00:17;22.00;;;12.15;;
68192;SDS011;55012;47.562;18.414;2023-05-21T03:02:42;25.83;;;12.35;;
68192;SDS011;55012;47.562;18.414;2023-05-21T03:05:08;20.00;;;11.48;;
68192;SDS011;55012;47.562;18.414;2023-05-21T03:07:34;25.83;;;12.95;;
68192;SDS011;55012;47.562;18.414;2023-05-21T03:09:59;18.65;;;10.75;;
68192;SDS011;55012;47.562;18.414;2023-05-21T03:12:25;16.70;;;10.52;;
68192;SDS011;55012;47.562;18.414;2023-05-21T03:14:51;17.27;;;10.40;;
68192;SDS011;55012;47.562;18.414;2023-05-21T03:17:17;16.30;;;9.82;;
68192;SDS011;55012;47.562;18.414;2023-05-21T03:19:43;20.95;;;9.95;;
68192;SDS011;55012;47.562;18.414;2023-05-21T03:22:08;16.55;;;10.50;;
68192;SDS011;55012;47.562;18.414;2023-05-21T03:24:36;16.98;;;10.48;;
68192;SDS011;55012;47.562;18.414;2023-05-21T03:27:05;16.67;;;9.77;;
68192;SDS011;55012;47.562;18.414;2023-05-21T03:29:31;15.82;;;9.20;;
68192;SDS011;55012;47.562;18.414;2023-05-21T03:31:57;15.48;;;9.52;;
68192;SDS011;55012;47.562;18.414;2023-05-21T03:34:23;18.58;;;10.15;;
68192;SDS011;55012;47.562;18.414;2023-05-21T03:36:49;19.40;;;10.98;;
68192;SDS011;55012;47.562;18.414;2023-05-21T03:39:15;21.92;;;11.85;;
68192;SDS011;55012;47.562;18.414;2023-05-21T03:41:40;22.45;;;12.05;;
68192;SDS011;55012;47.562;18.414;2023-05-21T03:44:06;21.02;;;12.13;;
68192;SDS011;55012;47.562;18.414;2023-05-21T03:46:32;20.52;;;11.23;;
68192;SDS011;55012;47.562;18.414;2023-05-21T03:48:57;19.98;;;11.20;;
68192;SDS011;55012;47.562;18.414;2023-05-21T03:51:23;25.10;;;12.57;;
68192;SDS011;55012;47.562;18.414;2023-05-21T03:53:49;26.10;;;13.55;;
68192;SDS011;55012;47.562;18.414;2023-05-21T03:56:15;29.42;;;13.80;;
68192;SDS011;55012;47.562;18.414;2023-05-21T03:58:41;20.20;;;11.98;;
68192;SDS011;55012;47.562;18.414;2023-05-21T04:01:07;22.98;;;11.82;;
68192;SDS011;55012;47.562;18.414;2023-05-21T04:03:33;20.40;;;11.52;;
68192;SDS011;55012;47.562;18.414;2023-05-21T04:06:02;19.13;;;10.45;;
68192;SDS011;55012;47.562;18.414;2023-05-21T04:08:28;18.10;;;10.75;;
68192;SDS011;55012;47.562;18.414;2023-05-21T04:10:53;20.27;;;11.43;;
68192;SDS011;55012;47.562;18.414;2023-05-21T04:13:19;18.98;;;11.30;;
68192;SDS011;55012;47.562;18.414;2023-05-21T04:15:45;17.65;;;10.45;;
68192;SDS011;55012;47.562;18.414;2023-05-21T04:18:11;16.55;;;10.25;;
68192;SDS011;55012;47.562;18.414;2023-05-21T04:20:41;15.85;;;9.90;;
68192;SDS011;55012;47.562;18.414;2023-05-21T04:23:07;19.98;;;11.68;;
68192;SDS011;55012;47.562;18.414;2023-05-21T04:25:32;22.05;;;12.40;;
68192;SDS011;55012;47.562;18.414;2023-05-21T04:27:58;27.75;;;13.38;;
68192;SDS011;55012;47.562;18.414;2023-05-21T04:30:24;27.33;;;14.15;;
68192;SDS011;55012;47.562;18.414;2023-05-21T04:32:49;27.48;;;13.32;;
68192;SDS011;55012;47.562;18.414;2023-05-21T04:35:16;22.08;;;11.32;;
68192;SDS011;55012;47.562;18.414;2023-05-21T04:37:42;18.05;;;10.73;;
68192;SDS011;55012;47.562;18.414;2023-05-21T04:40:10;18.77;;;10.52;;
68192;SDS011;55012;47.562;18.414;2023-05-21T04:42:36;18.42;;;11.05;;
68192;SDS011;55012;47.562;18.414;2023-05-21T04:45:03;23.88;;;11.80;;
68192;SDS011;55012;47.562;18.414;2023-05-21T04:47:28;20.95;;;11.40;;
68192;SDS011;55012;47.562;18.414;2023-05-21T04:49:54;20.17;;;10.43;;
68192;SDS011;55012;47.562;18.414;2023-05-21T04:52:20;21.92;;;9.18;;
68192;SDS011;55012;47.562;18.414;2023-05-21T04:54:45;17.67;;;9.13;;
68192;SDS011;55012;47.562;18.414;2023-05-21T04:57:11;15.88;;;8.93;;
68192;SDS011;55012;47.562;18.414;2023-05-21T04:59:37;20.30;;;8.77;;
68192;SDS011;55012;47.562;18.414;2023-05-21T05:02:03;12.63;;;8.15;;
68192;SDS011;55012;47.562;18.414;2023-05-21T05:04:30;14.88;;;8.57;;
68192;SDS011;55012;47.562;18.414;2023-05-21T05:06:55;13.60;;;8.43;;
68192;SDS011;55012;47.562;18.414;2023-05-21T05:09:21;13.07;;;8.25;;
68192;SDS011;55012;47.562;18.414;2023-05-21T05:11:49;13.00;;;8.07;;
68192;SDS011;55012;47.562;18.414;2023-05-21T05:14:15;12.30;;;7.85;;
68192;SDS011;55012;47.562;18.414;2023-05-21T05:16:40;13.23;;;7.63;;
68192;SDS011;55012;47.562;18.414;2023-05-21T05:19:06;14.48;;;8.13;;
68192;SDS011;55012;47.562;18.414;2023-05-21T05:21:32;14.32;;;8.85;;
68192;SDS011;55012;47.562;18.414;2023-05-21T05:23:58;11.90;;;7.93;;
68192;SDS011;55012;47.562;18.414;2023-05-21T05:26:24;14.45;;;8.00;;
68192;SDS011;55012;47.562;18.414;2023-05-21T05:28:50;15.43;;;8.70;;
68192;SDS011;55012;47.562;18.414;2023-05-21T05:31:16;14.68;;;8.15;;
68192;SDS011;55012;47.562;18.414;2023-05-21T05:33:41;14.00;;;9.10;;
68192;SDS011;55012;47.562;18.414;2023-05-21T05:36:07;9.68;;;6.82;;
68192;SDS011;55012;47.562;18.414;2023-05-21T05:38:33;10.82;;;6.85;;
68192;SDS011;55012;47.562;18.414;2023-05-21T05:40:59;10.18;;;6.20;;
68192;SDS011;55012;47.562;18.414;2023-05-21T05:43:25;8.35;;;6.32;;
68192;SDS011;55012;47.562;18.414;2023-05-21T05:45:50;10.10;;;6.18;;
68192;SDS011;55012;47.562;18.414;2023-05-21T05:48:16;9.45;;;6.03;;
68192;SDS011;55012;47.562;18.414;2023-05-21T05:50:41;9.10;;;5.95;;
68192;SDS011;55012;47.562;18.414;2023-05-21T05:53:07;9.27;;;6.20;;
68192;SDS011;55012;47.562;18.414;2023-05-21T05:55:33;12.35;;;6.82;;
68192;SDS011;55012;47.562;18.414;2023-05-21T05:57:58;8.60;;;6.30;;
68192;SDS011;55012;47.562;18.414;2023-05-21T06:00:24;7.75;;;6.07;;
68192;SDS011;55012;47.562;18.414;2023-05-21T06:02:50;11.65;;;6.32;;
68192;SDS011;55012;47.562;18.414;2023-05-21T06:05:15;11.00;;;6.20;;
68192;SDS011;55012;47.562;18.414;2023-05-21T06:07:41;8.32;;;5.65;;
68192;SDS011;55012;47.562;18.414;2023-05-21T06:10:06;7.82;;;5.85;;
68192;SDS011;55012;47.562;18.414;2023-05-21T06:12:33;10.35;;;6.43;;
68192;SDS011;55012;47.562;18.414;2023-05-21T06:14:58;8.43;;;6.07;;
68192;SDS011;55012;47.562;18.414;2023-05-21T06:17:24;8.77;;;6.03;;
68192;SDS011;55012;47.562;18.414;2023-05-21T06:19:49;9.50;;;6.50;;
68192;SDS011;55012;47.562;18.414;2023-05-21T06:22:15;11.85;;;7.18;;
68192;SDS011;55012;47.562;18.414;2023-05-21T06:24:40;10.25;;;6.60;;
68192;SDS011;55012;47.562;18.414;2023-05-21T06:27:05;11.43;;;7.68;;
68192;SDS011;55012;47.562;18.414;2023-05-21T06:29:31;8.77;;;6.57;;
68192;SDS011;55012;47.562;18.414;2023-05-21T06:31:56;8.50;;;6.35;;
68192;SDS011;55012;47.562;18.414;2023-05-21T06:34:22;9.23;;;6.40;;
68192;SDS011;55012;47.562;18.414;2023-05-21T06:36:47;11.25;;;6.65;;
68192;SDS011;55012;47.562;18.414;2023-05-21T06:39:13;8.75;;;5.97;;
68192;SDS011;55012;47.562;18.414;2023-05-21T06:41:38;9.40;;;6.40;;
68192;SDS011;55012;47.562;18.414;2023-05-21T06:44:04;8.27;;;5.50;;
68192;SDS011;55012;47.562;18.414;2023-05-21T06:46:30;8.38;;;5.88;;
68192;SDS011;55012;47.562;18.414;2023-05-21T06:48:55;10.93;;;5.85;;
68192;SDS011;55012;47.562;18.414;2023-05-21T06:51:21;8.18;;;5.60;;
68192;SDS011;55012;47.562;18.414;2023-05-21T06:53:46;9.02;;;5.55;;
68192;SDS011;55012;47.562;18.414;2023-05-21T06:56:12;9.32;;;5.63;;
68192;SDS011;55012;47.562;18.414;2023-05-21T06:58:37;8.02;;;5.60;;
68192;SDS011;55012;47.562;18.414;2023-05-21T07:01:03;8.50;;;6.20;;
68192;SDS011;55012;47.562;18.414;2023-05-21T07:03:28;8.73;;;5.68;;
68192;SDS011;55012;47.562;18.414;2023-05-21T07:05:54;8.63;;;5.78;;
68192;SDS011;55012;47.562;18.414;2023-05-21T07:08:21;8.85;;;6.20;;
68192;SDS011;55012;47.562;18.414;2023-05-21T07:10:46;7.68;;;5.53;;
68192;SDS011;55012;47.562;18.414;2023-05-21T07:13:14;8.18;;;5.63;;
68192;SDS011;55012;47.562;18.414;2023-05-21T07:15:39;8.43;;;6.13;;
68192;SDS011;55012;47.562;18.414;2023-05-21T07:18:05;9.07;;;5.95;;
68192;SDS011;55012;47.562;18.414;2023-05-21T07:20:30;9.02;;;6.15;;
68192;SDS011;55012;47.562;18.414;2023-05-21T07:22:56;7.45;;;5.82;;
68192;SDS011;55012;47.562;18.414;2023-05-21T07:25:21;8.95;;;5.95;;
68192;SDS011;55012;47.562;18.414;2023-05-21T07:27:47;7.55;;;5.78;;
68192;SDS011;55012;47.562;18.414;2023-05-21T07:30:13;8.40;;;6.28;;
68192;SDS011;55012;47.562;18.414;2023-05-21T07:32:38;10.07;;;6.50;;
68192;SDS011;55012;47.562;18.414;2023-05-21T07:35:04;8.68;;;5.88;;
68192;SDS011;55012;47.562;18.414;2023-05-21T07:37:30;8.23;;;5.70;;
68192;SDS011;55012;47.562;18.414;2023-05-21T07:39:56;8.57;;;5.80;;
68192;SDS011;55012;47.562;18.414;2023-05-21T07:42:24;8.40;;;5.78;;
68192;SDS011;55012;47.562;18.414;2023-05-21T07:44:50;8.07;;;5.75;;
68192;SDS011;55012;47.562;18.414;2023-05-21T07:47:16;7.80;;;5.32;;
68192;SDS011;55012;47.562;18.414;2023-05-21T07:49:42;7.50;;;5.60;;
68192;SDS011;55012;47.562;18.414;2023-05-21T07:52:07;7.60;;;5.68;;
68192;SDS011;55012;47.562;18.414;2023-05-21T07:54:33;7.82;;;5.47;;
68192;SDS011;55012;47.562;18.414;2023-05-21T07:56:59;9.00;;;5.78;;
68192;SDS011;55012;47.562;18.414;2023-05-21T07:59:26;9.73;;;6.28;;
68192;SDS011;55012;47.562;18.414;2023-05-21T08:01:52;7.80;;;5.63;;
68192;SDS011;55012;47.562;18.414;2023-05-21T08:04:18;7.93;;;5.60;;
68192;SDS011;55012;47.562;18.414;2023-05-21T08:06:43;8.90;;;6.05;;
68192;SDS011;55012;47.562;18.414;2023-05-21T08:09:08;10.65;;;5.88;;
68192;SDS011;55012;47.562;18.414;2023-05-21T08:11:34;7.30;;;6.07;;
68192;SDS011;55012;47.562;18.414;2023-05-21T08:13:59;8.38;;;6.20;;
68192;SDS011;55012;47.562;18.414;2023-05-21T08:16:25;9.52;;;6.20;;
68192;SDS011;55012;47.562;18.414;2023-05-21T08:18:50;10.02;;;5.82;;
68192;SDS011;55012;47.562;18.414;2023-05-21T08:21:16;7.88;;;6.30;;
68192;SDS011;55012;47.562;18.414;2023-05-21T08:23:42;8.77;;;6.28;;
68192;SDS011;55012;47.562;18.414;2023-05-21T08:26:08;9.57;;;6.32;;
68192;SDS011;55012;47.562;18.414;2023-05-21T08:28:34;10.80;;;5.93;;
68192;SDS011;55012;47.562;18.414;2023-05-21T08:31:02;9.10;;;6.25;;
68192;SDS011;55012;47.562;18.414;2023-05-21T08:33:27;7.15;;;5.63;;
68192;SDS011;55012;47.562;18.414;2023-05-21T08:35:52;7.25;;;5.75;;
68192;SDS011;55012;47.562;18.414;2023-05-21T08:38:18;8.02;;;5.53;;
68192;SDS011;55012;47.562;18.414;2023-05-21T08:40:44;8.45;;;5.68;;
68192;SDS011;55012;47.562;18.414;2023-05-21T08:43:13;9.60;;;6.03;;
68192;SDS011;55012;47.562;18.414;2023-05-21T08:45:41;7.95;;;6.00;;
68192;SDS011;55012;47.562;18.414;2023-05-21T08:48:10;8.85;;;6.15;;
68192;SDS011;55012;47.562;18.414;2023-05-21T08:50:36;9.38;;;5.88;;
68192;SDS011;55012;47.562;18.414;2023-05-21T08:53:02;7.93;;;6.10;;
68192;SDS011;55012;47.562;18.414;2023-05-21T08:55:27;8.60;;;6.13;;
68192;SDS011;55012;47.562;18.414;2023-05-21T08:57:53;7.38;;;5.43;;
68192;SDS011;55012;47.562;18.414;2023-05-21T09:00:19;7.57;;;5.60;;
68192;SDS011;55012;47.562;18.414;2023-05-21T09:02:45;8.05;;;5.55;;
68192;SDS011;55012;47.562;18.414;2023-05-21T09:05:11;9.52;;;6.13;;
68192;SDS011;55012;47.562;18.414;2023-05-21T09:07:41;8.68;;;6.18;;
68192;SDS011;55012;47.562;18.414;2023-05-21T09:10:11;8.80;;;5.75;;
68192;SDS011;55012;47.562;18.414;2023-05-21T09:12:37;9.85;;;6.03;;
68192;SDS011;55012;47.562;18.414;2023-05-21T09:15:03;8.50;;;5.88;;
68192;SDS011;55012;47.562;18.414;2023-05-21T09:17:29;8.30;;;5.95;;
68192;SDS011;55012;47.562;18.414;2023-05-21T09:22:47;8.55;;;5.90;;
68192;SDS011;55012;47.562;18.414;2023-05-21T09:25:19;8.65;;;6.30;;
68192;SDS011;55012;47.562;18.414;2023-05-21T09:27:48;8.07;;;6.10;;
68192;SDS011;55012;47.562;18.414;2023-05-21T09:30:15;9.77;;;6.50;;
68192;SDS011;55012;47.562;18.414;2023-05-21T09:32:42;7.72;;;5.88;;
68192;SDS011;55012;47.562;18.414;2023-05-21T09:35:12;8.90;;;6.15;;
68192;SDS011;55012;47.562;18.414;2023-05-21T09:37:39;7.20;;;5.47;;
68192;SDS011;55012;47.562;18.414;2023-05-21T09:40:18;8.52;;;6.30;;
68192;SDS011;55012;47.562;18.414;2023-05-21T09:45:11;8.02;;;5.97;;
68192;SDS011;55012;47.562;18.414;2023-05-21T09:47:43;6.97;;;5.82;;
68192;SDS011;55012;47.562;18.414;2023-05-21T09:50:13;8.60;;;6.15;;
68192;SDS011;55012;47.562;18.414;2023-05-21T09:52:42;8.82;;;5.65;;
68192;SDS011;55012;47.562;18.414;2023-05-21T09:55:11;7.50;;;5.55;;
68192;SDS011;55012;47.562;18.414;2023-05-21T09:57:44;10.13;;;5.88;;
68192;SDS011;55012;47.562;18.414;2023-05-21T10:00:20;8.80;;;6.10;;
68192;SDS011;55012;47.562;18.414;2023-05-21T10:02:55;10.00;;;5.93;;
68192;SDS011;55012;47.562;18.414;2023-05-21T10:05:24;7.78;;;6.10;;
68192;SDS011;55012;47.562;18.414;2023-05-21T10:07:52;8.85;;;6.18;;
68192;SDS011;55012;47.562;18.414;2023-05-21T10:10:21;7.80;;;5.80;;
68192;SDS011;55012;47.562;18.414;2023-05-21T10:12:50;8.40;;;5.82;;
68192;SDS011;55012;47.562;18.414;2023-05-21T10:15:21;9.68;;;6.20;;
68192;SDS011;55012;47.562;18.414;2023-05-21T10:17:48;8.50;;;6.00;;
68192;SDS011;55012;47.562;18.414;2023-05-21T10:20:15;7.90;;;6.00;;
68192;SDS011;55012;47.562;18.414;2023-05-21T10:22:40;8.90;;;6.15;;
68192;SDS011;55012;47.562;18.414;2023-05-21T10:25:06;8.70;;;6.10;;
68192;SDS011;55012;47.562;18.414;2023-05-21T10:27:33;10.60;;;6.30;;
68192;SDS011;55012;47.562;18.414;2023-05-21T10:30:00;9.55;;;6.32;;
68192;SDS011;55012;47.562;18.414;2023-05-21T10:32:26;9.52;;;6.40;;
68192;SDS011;55012;47.562;18.414;2023-05-21T10:34:55;9.05;;;6.20;;
68192;SDS011;55012;47.562;18.414;2023-05-21T10:37:24;11.32;;;6.43;;
68192;SDS011;55012;47.562;18.414;2023-05-21T10:39:51;8.05;;;6.53;;
68192;SDS011;55012;47.562;18.414;2023-05-21T10:42:45;8.48;;;6.35;;
68192;SDS011;55012;47.562;18.414;2023-05-21T10:45:38;10.43;;;6.65;;
68192;SDS011;55012;47.562;18.414;2023-05-21T10:51:58;9.00;;;7.00;;
68192;SDS011;55012;47.562;18.414;2023-05-21T10:54:45;9.70;;;6.53;;
68192;SDS011;55012;47.562;18.414;2023-05-21T11:00:00;7.90;;;6.20;;
68192;SDS011;55012;47.562;18.414;2023-05-21T11:02:29;8.65;;;6.30;;
68192;SDS011;55012;47.562;18.414;2023-05-21T11:04:58;8.35;;;6.20;;
68192;SDS011;55012;47.562;18.414;2023-05-21T11:10:38;7.53;;;5.47;;
68192;SDS011;55012;47.562;18.414;2023-05-21T11:13:08;8.38;;;5.78;;
68192;SDS011;55012;47.562;18.414;2023-05-21T11:16:01;8.57;;;6.25;;
68192;SDS011;55012;47.562;18.414;2023-05-21T11:21:09;7.30;;;5.80;;
68192;SDS011;55012;47.562;18.414;2023-05-21T11:26:22;8.93;;;6.13;;
68192;SDS011;55012;47.562;18.414;2023-05-21T11:29:04;10.32;;;6.60;;
68192;SDS011;55012;47.562;18.414;2023-05-21T11:31:32;8.45;;;6.18;;
68192;SDS011;55012;47.562;18.414;2023-05-21T11:34:18;7.40;;;5.90;;
68192;SDS011;55012;47.562;18.414;2023-05-21T11:36:44;9.48;;;5.82;;
68192;SDS011;55012;47.562;18.414;2023-05-21T11:39:17;8.45;;;5.45;;
68192;SDS011;55012;47.562;18.414;2023-05-21T11:44:39;7.32;;;5.75;;
68192;SDS011;55012;47.562;18.414;2023-05-21T11:47:05;7.78;;;5.70;;
68192;SDS011;55012;47.562;18.414;2023-05-21T11:49:32;8.15;;;5.82;;
68192;SDS011;55012;47.562;18.414;2023-05-21T11:52:01;8.27;;;5.93;;
68192;SDS011;55012;47.562;18.414;2023-05-21T11:54:29;9.73;;;6.18;;
68192;SDS011;55012;47.562;18.414;2023-05-21T11:56:58;7.85;;;5.63;;
68192;SDS011;55012;47.562;18.414;2023-05-21T11:59:24;8.00;;;5.68;;
68192;SDS011;55012;47.562;18.414;2023-05-21T12:01:50;7.63;;;5.30;;
68192;SDS011;55012;47.562;18.414;2023-05-21T12:04:15;7.55;;;5.93;;
68192;SDS011;55012;47.562;18.414;2023-05-21T12:06:41;8.15;;;5.75;;
68192;SDS011;55012;47.562;18.414;2023-05-21T12:09:10;7.68;;;5.90;;
68192;SDS011;55012;47.562;18.414;2023-05-21T12:11:40;7.57;;;5.63;;
68192;SDS011;55012;47.562;18.414;2023-05-21T12:14:06;6.35;;;5.47;;
68192;SDS011;55012;47.562;18.414;2023-05-21T12:16:33;7.25;;;5.80;;
68192;SDS011;55012;47.562;18.414;2023-05-21T12:18:59;8.52;;;5.70;;
68192;SDS011;55012;47.562;18.414;2023-05-21T12:21:28;8.40;;;6.20;;
68192;SDS011;55012;47.562;18.414;2023-05-21T12:23:57;7.82;;;5.55;;
68192;SDS011;55012;47.562;18.414;2023-05-21T12:26:23;7.82;;;5.78;;
68192;SDS011;55012;47.562;18.414;2023-05-21T12:28:52;7.55;;;5.53;;
68192;SDS011;55012;47.562;18.414;2023-05-21T12:31:19;8.27;;;5.82;;
68192;SDS011;55012;47.562;18.414;2023-05-21T12:33:48;7.20;;;6.00;;
68192;SDS011;55012;47.562;18.414;2023-05-21T12:36:28;11.13;;;5.82;;
68192;SDS011;55012;47.562;18.414;2023-05-21T12:38:56;8.63;;;6.20;;
68192;SDS011;55012;47.562;18.414;2023-05-21T12:41:22;8.10;;;6.40;;
68192;SDS011;55012;47.562;18.414;2023-05-21T12:43:51;18.27;;;13.30;;
68192;SDS011;55012;47.562;18.414;2023-05-21T12:46:17;7.80;;;5.90;;
68192;SDS011;55012;47.562;18.414;2023-05-21T12:48:51;10.13;;;5.97;;
68192;SDS011;55012;47.562;18.414;2023-05-21T12:51:19;6.70;;;5.55;;
68192;SDS011;55012;47.562;18.414;2023-05-21T12:53:45;6.78;;;5.28;;
68192;SDS011;55012;47.562;18.414;2023-05-21T12:56:11;6.85;;;5.68;;
68192;SDS011;55012;47.562;18.414;2023-05-21T12:58:37;6.82;;;5.95;;
68192;SDS011;55012;47.562;18.414;2023-05-21T13:01:09;7.43;;;5.60;;
68192;SDS011;55012;47.562;18.414;2023-05-21T13:03:36;7.30;;;5.43;;
68192;SDS011;55012;47.562;18.414;2023-05-21T13:06:02;9.80;;;5.70;;
68192;SDS011;55012;47.562;18.414;2023-05-21T13:08:31;8.63;;;5.60;;
68192;SDS011;55012;47.562;18.414;2023-05-21T13:10:58;8.00;;;5.80;;
68192;SDS011;55012;47.562;18.414;2023-05-21T13:13:24;7.82;;;5.55;;
68192;SDS011;55012;47.562;18.414;2023-05-21T13:15:51;9.05;;;5.70;;
68192;SDS011;55012;47.562;18.414;2023-05-21T13:18:17;6.50;;;5.65;;
68192;SDS011;55012;47.562;18.414;2023-05-21T13:20:44;8.90;;;5.90;;
68192;SDS011;55012;47.562;18.414;2023-05-21T13:23:10;6.63;;;5.25;;
68192;SDS011;55012;47.562;18.414;2023-05-21T13:25:36;6.88;;;5.20;;
68192;SDS011;55012;47.562;18.414;2023-05-21T13:28:01;6.82;;;5.40;;
68192;SDS011;55012;47.562;18.414;2023-05-21T13:30:29;9.40;;;5.68;;
68192;SDS011;55012;47.562;18.414;2023-05-21T13:32:54;8.18;;;5.03;;
68192;SDS011;55012;47.562;18.414;2023-05-21T13:35:20;7.80;;;5.40;;
68192;SDS011;55012;47.562;18.414;2023-05-21T13:37:45;5.97;;;5.10;;
68192;SDS011;55012;47.562;18.414;2023-05-21T13:40:12;5.97;;;4.80;;
68192;SDS011;55012;47.562;18.414;2023-05-21T13:42:39;6.70;;;4.75;;
68192;SDS011;55012;47.562;18.414;2023-05-21T13:45:08;6.45;;;5.20;;
68192;SDS011;55012;47.562;18.414;2023-05-21T13:47:35;6.05;;;4.88;;
68192;SDS011;55012;47.562;18.414;2023-05-21T13:50:02;5.93;;;4.60;;
68192;SDS011;55012;47.562;18.414;2023-05-21T13:52:28;6.13;;;4.78;;
68192;SDS011;55012;47.562;18.414;2023-05-21T13:54:53;7.10;;;4.97;;
68192;SDS011;55012;47.562;18.414;2023-05-21T13:57:19;6.57;;;4.50;;
68192;SDS011;55012;47.562;18.414;2023-05-21T13:59:44;7.22;;;4.93;;
68192;SDS011;55012;47.562;18.414;2023-05-21T14:02:10;7.43;;;4.70;;
68192;SDS011;55012;47.562;18.414;2023-05-21T14:04:35;5.70;;;5.10;;
68192;SDS011;55012;47.562;18.414;2023-05-21T14:07:02;7.32;;;4.97;;
68192;SDS011;55012;47.562;18.414;2023-05-21T14:09:28;5.65;;;5.05;;
68192;SDS011;55012;47.562;18.414;2023-05-21T14:11:53;6.22;;;5.20;;
68192;SDS011;55012;47.562;18.414;2023-05-21T14:14:20;7.50;;;5.50;;
68192;SDS011;55012;47.562;18.414;2023-05-21T14:16:46;7.57;;;4.90;;
68192;SDS011;55012;47.562;18.414;2023-05-21T14:19:11;8.15;;;5.30;;
68192;SDS011;55012;47.562;18.414;2023-05-21T14:21:37;6.72;;;5.15;;
68192;SDS011;55012;47.562;18.414;2023-05-21T14:24:02;6.03;;;5.28;;
68192;SDS011;55012;47.562;18.414;2023-05-21T14:26:28;7.15;;;5.32;;
68192;SDS011;55012;47.562;18.414;2023-05-21T14:28:53;7.25;;;5.25;;
68192;SDS011;55012;47.562;18.414;2023-05-21T14:31:19;7.72;;;5.50;;
68192;SDS011;55012;47.562;18.414;2023-05-21T14:33:47;7.43;;;5.53;;
68192;SDS011;55012;47.562;18.414;2023-05-21T14:36:13;6.47;;;5.25;;
68192;SDS011;55012;47.562;18.414;2023-05-21T14:38:39;7.15;;;5.50;;
68192;SDS011;55012;47.562;18.414;2023-05-21T14:41:04;6.70;;;5.60;;
68192;SDS011;55012;47.562;18.414;2023-05-21T14:43:31;7.20;;;5.60;;
68192;SDS011;55012;47.562;18.414;2023-05-21T14:45:56;7.30;;;6.40;;
68192;SDS011;55012;47.562;18.414;2023-05-21T14:48:22;7.22;;;5.57;;
68192;SDS011;55012;47.562;18.414;2023-05-21T14:50:48;8.18;;;6.50;;
68192;SDS011;55012;47.562;18.414;2023-05-21T14:53:15;6.43;;;5.38;;